sensor_id;sensor_type;location;lat;lon;timestamp;P1;durP1;ratioP1;P2;durP2;ratioP2
24787;SDS011;12883;52.662;5.196;2024-03-02T00:00:22;1.20;;;1.20;;
24787;SDS011;12883;52.662;5.196;2024-03-02T00:02:49;1.40;;;1.40;;
24787;SDS011;12883;52.662;5.196;2024-03-02T00:05:19;1.43;;;1.43;;
24787;SDS011;12883;52.662;5.196;2024-03-02T00:07:46;1.30;;;1.30;;
24787;SDS011;12883;52.662;5.196;2024-03-02T00:10:20;1.20;;;1.20;;
24787;SDS011;12883;52.662;5.196;2024-03-02T00:12:53;1.40;;;1.40;;
24787;SDS011;12883;52.662;5.196;2024-03-02T00:17:53;1.80;;;1.80;;
24787;SDS011;12883;52.662;5.196;2024-03-02T00:20:21;1.10;;;1.10;;
24787;SDS011;12883;52.662;5.196;2024-03-02T00:22:48;1.63;;;1.63;;
24787;SDS011;12883;52.662;5.196;2024-03-02T00:25:16;1.60;;;1.60;;
24787;SDS011;12883;52.662;5.196;2024-03-02T00:27:42;1.50;;;1.50;;
24787;SDS011;12883;52.662;5.196;2024-03-02T00:32:59;1.60;;;1.60;;
24787;SDS011;12883;52.662;5.196;2024-03-02T00:35:24;1.80;;;1.80;;
24787;SDS011;12883;52.662;5.196;2024-03-02T00:37:49;1.40;;;1.40;;
24787;SDS011;12883;52.662;5.196;2024-03-02T00:40:16;1.50;;;1.50;;
24787;SDS011;12883;52.662;5.196;2024-03-02T00:42:42;1.30;;;1.30;;
24787;SDS011;12883;52.662;5.196;2024-03-02T00:45:07;1.60;;;1.60;;
24787;SDS011;12883;52.662;5.196;2024-03-02T00:47:37;1.33;;;1.33;;
24787;SDS011;12883;52.662;5.196;2024-03-02T00:50:05;1.63;;;1.63;;
24787;SDS011;12883;52.662;5.196;2024-03-02T00:52:32;1.30;;;1.30;;
24787;SDS011;12883;52.662;5.196;2024-03-02T00:54:58;1.30;;;1.30;;
24787;SDS011;12883;52.662;5.196;2024-03-02T00:57:24;1.43;;;1.43;;
24787;SDS011;12883;52.662;5.196;2024-03-02T00:59:51;1.40;;;1.40;;
24787;SDS011;12883;52.662;5.196;2024-03-02T01:02:16;0.97;;;0.97;;
24787;SDS011;12883;52.662;5.196;2024-03-02T01:04:41;1.20;;;1.20;;
24787;SDS011;12883;52.662;5.196;2024-03-02T01:07:07;0.93;;;0.93;;
24787;SDS011;12883;52.662;5.196;2024-03-02T01:09:32;0.67;;;0.67;;
24787;SDS011;12883;52.662;5.196;2024-03-02T01:11:58;0.60;;;0.60;;
24787;SDS011;12883;52.662;5.196;2024-03-02T01:14:23;0.60;;;0.60;;
24787;SDS011;12883;52.662;5.196;2024-03-02T01:16:49;0.30;;;0.30;;
24787;SDS011;12883;52.662;5.196;2024-03-02T01:19:14;0.30;;;0.30;;
24787;SDS011;12883;52.662;5.196;2024-03-02T01:21:40;0.30;;;0.30;;
24787;SDS011;12883;52.662;5.196;2024-03-02T01:24:05;0.30;;;0.30;;
24787;SDS011;12883;52.662;5.196;2024-03-02T01:26:30;0.30;;;0.30;;
24787;SDS011;12883;52.662;5.196;2024-03-02T01:28:56;0.30;;;0.30;;
24787;SDS011;12883;52.662;5.196;2024-03-02T01:31:21;0.30;;;0.30;;
24787;SDS011;12883;52.662;5.196;2024-03-02T01:33:47;0.40;;;0.40;;
24787;SDS011;12883;52.662;5.196;2024-03-02T01:36:12;0.20;;;0.20;;
24787;SDS011;12883;52.662;5.196;2024-03-02T01:38:37;0.30;;;0.30;;
24787;SDS011;12883;52.662;5.196;2024-03-02T01:41:03;0.40;;;0.40;;
24787;SDS011;12883;52.662;5.196;2024-03-02T01:43:28;0.20;;;0.20;;
24787;SDS011;12883;52.662;5.196;2024-03-02T01:45:54;0.40;;;0.40;;
24787;SDS011;12883;52.662;5.196;2024-03-02T01:48:19;0.23;;;0.23;;
24787;SDS011;12883;52.662;5.196;2024-03-02T01:50:44;0.23;;;0.23;;
24787;SDS011;12883;52.662;5.196;2024-03-02T01:53:10;0.30;;;0.30;;
24787;SDS011;12883;52.662;5.196;2024-03-02T01:55:35;0.30;;;0.30;;
24787;SDS011;12883;52.662;5.196;2024-03-02T01:58:01;0.23;;;0.23;;
24787;SDS011;12883;52.662;5.196;2024-03-02T02:00:26;0.40;;;0.40;;
24787;SDS011;12883;52.662;5.196;2024-03-02T02:02:52;0.30;;;0.30;;
24787;SDS011;12883;52.662;5.196;2024-03-02T02:05:18;0.43;;;0.43;;
24787;SDS011;12883;52.662;5.196;2024-03-02T02:07:43;0.40;;;0.40;;
24787;SDS011;12883;52.662;5.196;2024-03-02T02:10:11;0.40;;;0.40;;
24787;SDS011;12883;52.662;5.196;2024-03-02T02:12:37;0.40;;;0.40;;
24787;SDS011;12883;52.662;5.196;2024-03-02T02:15:04;0.50;;;0.50;;
24787;SDS011;12883;52.662;5.196;2024-03-02T02:17:46;0.30;;;0.30;;
24787;SDS011;12883;52.662;5.196;2024-03-02T02:20:12;0.57;;;0.57;;
24787;SDS011;12883;52.662;5.196;2024-03-02T02:22:37;0.67;;;0.67;;
24787;SDS011;12883;52.662;5.196;2024-03-02T02:25:02;0.60;;;0.60;;
24787;SDS011;12883;52.662;5.196;2024-03-02T02:27:28;0.60;;;0.60;;
24787;SDS011;12883;52.662;5.196;2024-03-02T02:29:53;0.60;;;0.60;;
24787;SDS011;12883;52.662;5.196;2024-03-02T02:32:21;0.90;;;0.90;;
24787;SDS011;12883;52.662;5.196;2024-03-02T02:34:46;0.70;;;0.70;;
24787;SDS011;12883;52.662;5.196;2024-03-02T02:37:11;0.60;;;0.60;;
24787;SDS011;12883;52.662;5.196;2024-03-02T02:39:37;0.60;;;0.60;;
24787;SDS011;12883;52.662;5.196;2024-03-02T02:42:02;0.63;;;0.63;;
24787;SDS011;12883;52.662;5.196;2024-03-02T02:44:28;0.50;;;0.50;;
24787;SDS011;12883;52.662;5.196;2024-03-02T02:46:53;0.50;;;0.50;;
24787;SDS011;12883;52.662;5.196;2024-03-02T02:49:19;0.60;;;0.60;;
24787;SDS011;12883;52.662;5.196;2024-03-02T02:51:44;0.63;;;0.63;;
24787;SDS011;12883;52.662;5.196;2024-03-02T02:54:09;0.80;;;0.80;;
24787;SDS011;12883;52.662;5.196;2024-03-02T02:56:35;0.80;;;0.80;;
24787;SDS011;12883;52.662;5.196;2024-03-02T02:59:00;0.90;;;0.90;;
24787;SDS011;12883;52.662;5.196;2024-03-02T03:01:25;0.70;;;0.70;;
24787;SDS011;12883;52.662;5.196;2024-03-02T03:03:51;0.87;;;0.87;;
24787;SDS011;12883;52.662;5.196;2024-03-02T03:06:16;0.90;;;0.90;;
24787;SDS011;12883;52.662;5.196;2024-03-02T03:08:41;0.60;;;0.60;;
24787;SDS011;12883;52.662;5.196;2024-03-02T03:11:07;0.60;;;0.60;;
24787;SDS011;12883;52.662;5.196;2024-03-02T03:13:32;0.53;;;0.53;;
24787;SDS011;12883;52.662;5.196;2024-03-02T03:15:59;0.53;;;0.53;;
24787;SDS011;12883;52.662;5.196;2024-03-02T03:18:24;0.50;;;0.50;;
24787;SDS011;12883;52.662;5.196;2024-03-02T03:20:50;0.80;;;0.80;;
24787;SDS011;12883;52.662;5.196;2024-03-02T03:23:15;0.50;;;0.50;;
24787;SDS011;12883;52.662;5.196;2024-03-02T03:25:42;0.50;;;0.50;;
24787;SDS011;12883;52.662;5.196;2024-03-02T03:28:07;0.30;;;0.30;;
24787;SDS011;12883;52.662;5.196;2024-03-02T03:30:35;0.40;;;0.40;;
24787;SDS011;12883;52.662;5.196;2024-03-02T03:33:02;0.40;;;0.40;;
24787;SDS011;12883;52.662;5.196;2024-03-02T03:35:27;0.50;;;0.50;;
24787;SDS011;12883;52.662;5.196;2024-03-02T03:37:52;0.53;;;0.53;;
24787;SDS011;12883;52.662;5.196;2024-03-02T03:40:18;0.50;;;0.50;;
24787;SDS011;12883;52.662;5.196;2024-03-02T03:42:44;0.53;;;0.53;;
24787;SDS011;12883;52.662;5.196;2024-03-02T03:45:09;0.40;;;0.40;;
24787;SDS011;12883;52.662;5.196;2024-03-02T03:47:35;0.57;;;0.57;;
24787;SDS011;12883;52.662;5.196;2024-03-02T03:50:01;0.30;;;0.30;;
24787;SDS011;12883;52.662;5.196;2024-03-02T03:52:29;0.60;;;0.60;;
24787;SDS011;12883;52.662;5.196;2024-03-02T03:54:54;0.70;;;0.70;;
24787;SDS011;12883;52.662;5.196;2024-03-02T03:57:20;0.67;;;0.67;;
24787;SDS011;12883;52.662;5.196;2024-03-02T03:59:45;0.60;;;0.60;;
24787;SDS011;12883;52.662;5.196;2024-03-02T04:02:11;0.50;;;0.50;;
24787;SDS011;12883;52.662;5.196;2024-03-02T04:04:37;0.73;;;0.73;;
24787;SDS011;12883;52.662;5.196;2024-03-02T04:07:03;0.53;;;0.53;;
24787;SDS011;12883;52.662;5.196;2024-03-02T04:09:29;0.60;;;0.60;;
24787;SDS011;12883;52.662;5.196;2024-03-02T04:11:54;0.90;;;0.90;;
24787;SDS011;12883;52.662;5.196;2024-03-02T04:14:20;0.90;;;0.90;;
24787;SDS011;12883;52.662;5.196;2024-03-02T04:16:45;1.17;;;1.17;;
24787;SDS011;12883;52.662;5.196;2024-03-02T04:19:10;0.63;;;0.63;;
24787;SDS011;12883;52.662;5.196;2024-03-02T04:21:35;0.70;;;0.70;;
24787;SDS011;12883;52.662;5.196;2024-03-02T04:24:01;0.80;;;0.80;;
24787;SDS011;12883;52.662;5.196;2024-03-02T04:26:26;0.70;;;0.70;;
24787;SDS011;12883;52.662;5.196;2024-03-02T04:28:55;0.70;;;0.70;;
24787;SDS011;12883;52.662;5.196;2024-03-02T04:31:20;0.70;;;0.70;;
24787;SDS011;12883;52.662;5.196;2024-03-02T04:33:46;0.53;;;0.53;;
24787;SDS011;12883;52.662;5.196;2024-03-02T04:36:11;0.60;;;0.60;;
24787;SDS011;12883;52.662;5.196;2024-03-02T04:38:37;0.70;;;0.70;;
24787;SDS011;12883;52.662;5.196;2024-03-02T04:41:06;0.50;;;0.50;;
24787;SDS011;12883;52.662;5.196;2024-03-02T04:43:32;0.90;;;0.90;;
24787;SDS011;12883;52.662;5.196;2024-03-02T04:45:58;0.87;;;0.87;;
24787;SDS011;12883;52.662;5.196;2024-03-02T04:48:24;0.57;;;0.57;;
24787;SDS011;12883;52.662;5.196;2024-03-02T04:50:49;0.63;;;0.63;;
24787;SDS011;12883;52.662;5.196;2024-03-02T04:53:15;0.77;;;0.77;;
24787;SDS011;12883;52.662;5.196;2024-03-02T04:55:40;0.70;;;0.70;;
24787;SDS011;12883;52.662;5.196;2024-03-02T04:58:05;0.50;;;0.50;;
24787;SDS011;12883;52.662;5.196;2024-03-02T05:00:31;0.50;;;0.50;;
24787;SDS011;12883;52.662;5.196;2024-03-02T05:02:57;0.57;;;0.57;;
24787;SDS011;12883;52.662;5.196;2024-03-02T05:05:22;0.77;;;0.77;;
24787;SDS011;12883;52.662;5.196;2024-03-02T05:07:48;0.70;;;0.70;;
24787;SDS011;12883;52.662;5.196;2024-03-02T05:10:13;0.80;;;0.80;;
24787;SDS011;12883;52.662;5.196;2024-03-02T05:12:39;0.70;;;0.70;;
24787;SDS011;12883;52.662;5.196;2024-03-02T05:15:07;0.70;;;0.70;;
24787;SDS011;12883;52.662;5.196;2024-03-02T05:17:35;0.60;;;0.60;;
24787;SDS011;12883;52.662;5.196;2024-03-02T05:20:03;0.80;;;0.80;;
24787;SDS011;12883;52.662;5.196;2024-03-02T05:22:30;0.90;;;0.90;;
24787;SDS011;12883;52.662;5.196;2024-03-02T05:24:55;0.80;;;0.80;;
24787;SDS011;12883;52.662;5.196;2024-03-02T05:27:21;0.60;;;0.60;;
24787;SDS011;12883;52.662;5.196;2024-03-02T05:29:46;0.60;;;0.60;;
24787;SDS011;12883;52.662;5.196;2024-03-02T05:32:12;0.63;;;0.63;;
24787;SDS011;12883;52.662;5.196;2024-03-02T05:34:37;0.77;;;0.77;;
24787;SDS011;12883;52.662;5.196;2024-03-02T05:37:03;0.70;;;0.70;;
24787;SDS011;12883;52.662;5.196;2024-03-02T05:39:28;0.63;;;0.63;;
24787;SDS011;12883;52.662;5.196;2024-03-02T05:41:53;0.60;;;0.60;;
24787;SDS011;12883;52.662;5.196;2024-03-02T05:44:19;0.80;;;0.80;;
24787;SDS011;12883;52.662;5.196;2024-03-02T05:46:44;0.60;;;0.60;;
24787;SDS011;12883;52.662;5.196;2024-03-02T05:49:10;0.70;;;0.70;;
24787;SDS011;12883;52.662;5.196;2024-03-02T05:51:35;1.10;;;1.10;;
24787;SDS011;12883;52.662;5.196;2024-03-02T05:54:01;0.90;;;0.90;;
24787;SDS011;12883;52.662;5.196;2024-03-02T05:56:26;0.80;;;0.80;;
24787;SDS011;12883;52.662;5.196;2024-03-02T05:58:52;0.57;;;0.57;;
24787;SDS011;12883;52.662;5.196;2024-03-02T06:01:38;0.57;;;0.57;;
24787;SDS011;12883;52.662;5.196;2024-03-02T06:04:12;0.77;;;0.77;;
24787;SDS011;12883;52.662;5.196;2024-03-02T06:06:37;1.03;;;1.03;;
24787;SDS011;12883;52.662;5.196;2024-03-02T06:09:04;0.93;;;0.93;;
24787;SDS011;12883;52.662;5.196;2024-03-02T06:11:36;1.03;;;1.03;;
24787;SDS011;12883;52.662;5.196;2024-03-02T06:14:02;0.90;;;0.90;;
24787;SDS011;12883;52.662;5.196;2024-03-02T06:16:28;0.90;;;0.90;;
24787;SDS011;12883;52.662;5.196;2024-03-02T06:18:54;0.90;;;0.90;;
24787;SDS011;12883;52.662;5.196;2024-03-02T06:21:20;0.80;;;0.80;;
24787;SDS011;12883;52.662;5.196;2024-03-02T06:23:45;0.70;;;0.70;;
24787;SDS011;12883;52.662;5.196;2024-03-02T06:26:11;1.00;;;1.00;;
24787;SDS011;12883;52.662;5.196;2024-03-02T06:28:37;0.83;;;0.83;;
24787;SDS011;12883;52.662;5.196;2024-03-02T06:31:03;0.70;;;0.70;;
24787;SDS011;12883;52.662;5.196;2024-03-02T06:33:29;0.80;;;0.80;;
24787;SDS011;12883;52.662;5.196;2024-03-02T06:35:54;0.60;;;0.60;;
24787;SDS011;12883;52.662;5.196;2024-03-02T06:38:20;0.90;;;0.90;;
24787;SDS011;12883;52.662;5.196;2024-03-02T06:40:45;0.50;;;0.50;;
24787;SDS011;12883;52.662;5.196;2024-03-02T06:43:10;0.60;;;0.60;;
24787;SDS011;12883;52.662;5.196;2024-03-02T06:45:36;0.70;;;0.70;;
24787;SDS011;12883;52.662;5.196;2024-03-02T06:48:01;0.70;;;0.70;;
24787;SDS011;12883;52.662;5.196;2024-03-02T06:50:26;0.90;;;0.90;;
24787;SDS011;12883;52.662;5.196;2024-03-02T06:52:52;0.60;;;0.60;;
24787;SDS011;12883;52.662;5.196;2024-03-02T06:55:17;0.80;;;0.80;;
24787;SDS011;12883;52.662;5.196;2024-03-02T06:57:43;0.97;;;0.97;;
24787;SDS011;12883;52.662;5.196;2024-03-02T07:00:08;0.60;;;0.60;;
24787;SDS011;12883;52.662;5.196;2024-03-02T07:02:35;0.70;;;0.70;;
24787;SDS011;12883;52.662;5.196;2024-03-02T07:05:01;0.90;;;0.90;;
24787;SDS011;12883;52.662;5.196;2024-03-02T07:07:27;0.93;;;0.93;;
24787;SDS011;12883;52.662;5.196;2024-03-02T07:09:53;0.80;;;0.80;;
24787;SDS011;12883;52.662;5.196;2024-03-02T07:12:18;0.67;;;0.67;;
24787;SDS011;12883;52.662;5.196;2024-03-02T07:14:43;1.17;;;1.17;;
24787;SDS011;12883;52.662;5.196;2024-03-02T07:17:32;0.70;;;0.70;;
24787;SDS011;12883;52.662;5.196;2024-03-02T07:19:57;0.70;;;0.70;;
24787;SDS011;12883;52.662;5.196;2024-03-02T07:22:23;1.30;;;1.30;;
24787;SDS011;12883;52.662;5.196;2024-03-02T07:24:48;0.70;;;0.70;;
24787;SDS011;12883;52.662;5.196;2024-03-02T07:27:14;0.80;;;0.80;;
24787;SDS011;12883;52.662;5.196;2024-03-02T07:29:41;0.83;;;0.83;;
24787;SDS011;12883;52.662;5.196;2024-03-02T07:32:07;0.70;;;0.70;;
24787;SDS011;12883;52.662;5.196;2024-03-02T07:34:33;1.00;;;1.00;;
24787;SDS011;12883;52.662;5.196;2024-03-02T07:36:59;0.83;;;0.83;;
24787;SDS011;12883;52.662;5.196;2024-03-02T07:39:24;0.80;;;0.80;;
24787;SDS011;12883;52.662;5.196;2024-03-02T07:41:50;0.83;;;0.83;;
24787;SDS011;12883;52.662;5.196;2024-03-02T07:44:16;1.20;;;1.20;;
24787;SDS011;12883;52.662;5.196;2024-03-02T07:46:43;0.97;;;0.97;;
24787;SDS011;12883;52.662;5.196;2024-03-02T07:49:11;1.20;;;1.20;;
24787;SDS011;12883;52.662;5.196;2024-03-02T07:51:38;0.80;;;0.80;;
24787;SDS011;12883;52.662;5.196;2024-03-02T07:54:03;0.93;;;0.93;;
24787;SDS011;12883;52.662;5.196;2024-03-02T07:56:29;1.60;;;1.60;;
24787;SDS011;12883;52.662;5.196;2024-03-02T07:58:54;0.63;;;0.63;;
24787;SDS011;12883;52.662;5.196;2024-03-02T08:01:22;0.70;;;0.70;;
24787;SDS011;12883;52.662;5.196;2024-03-02T08:03:47;0.70;;;0.70;;
24787;SDS011;12883;52.662;5.196;2024-03-02T08:06:15;0.90;;;0.90;;
24787;SDS011;12883;52.662;5.196;2024-03-02T08:08:41;0.80;;;0.80;;
24787;SDS011;12883;52.662;5.196;2024-03-02T08:11:06;0.87;;;0.87;;
24787;SDS011;12883;52.662;5.196;2024-03-02T08:13:31;0.80;;;0.80;;
24787;SDS011;12883;52.662;5.196;2024-03-02T08:15:57;1.00;;;1.00;;
24787;SDS011;12883;52.662;5.196;2024-03-02T08:18:22;1.10;;;1.10;;
24787;SDS011;12883;52.662;5.196;2024-03-02T08:20:48;0.70;;;0.70;;
24787;SDS011;12883;52.662;5.196;2024-03-02T08:23:14;0.60;;;0.60;;
24787;SDS011;12883;52.662;5.196;2024-03-02T08:25:39;1.00;;;1.00;;
24787;SDS011;12883;52.662;5.196;2024-03-02T08:28:04;1.33;;;1.33;;
24787;SDS011;12883;52.662;5.196;2024-03-02T08:30:30;1.13;;;1.13;;
24787;SDS011;12883;52.662;5.196;2024-03-02T08:32:55;1.00;;;1.00;;
24787;SDS011;12883;52.662;5.196;2024-03-02T08:35:21;1.03;;;1.03;;
24787;SDS011;12883;52.662;5.196;2024-03-02T08:37:47;1.03;;;1.03;;
24787;SDS011;12883;52.662;5.196;2024-03-02T08:40:13;0.77;;;0.77;;
24787;SDS011;12883;52.662;5.196;2024-03-02T08:42:39;0.70;;;0.70;;
24787;SDS011;12883;52.662;5.196;2024-03-02T08:45:04;0.60;;;0.60;;
24787;SDS011;12883;52.662;5.196;2024-03-02T08:47:31;1.00;;;1.00;;
24787;SDS011;12883;52.662;5.196;2024-03-02T08:49:56;1.00;;;1.00;;
24787;SDS011;12883;52.662;5.196;2024-03-02T08:52:21;0.90;;;0.90;;
24787;SDS011;12883;52.662;5.196;2024-03-02T08:54:47;1.03;;;1.03;;
24787;SDS011;12883;52.662;5.196;2024-03-02T08:57:12;1.10;;;1.10;;
24787;SDS011;12883;52.662;5.196;2024-03-02T08:59:37;1.03;;;1.03;;
24787;SDS011;12883;52.662;5.196;2024-03-02T09:02:03;0.80;;;0.80;;
24787;SDS011;12883;52.662;5.196;2024-03-02T09:04:29;0.70;;;0.70;;
24787;SDS011;12883;52.662;5.196;2024-03-02T09:06:54;0.93;;;0.93;;
24787;SDS011;12883;52.662;5.196;2024-03-02T09:09:20;0.60;;;0.60;;
24787;SDS011;12883;52.662;5.196;2024-03-02T09:11:46;0.70;;;0.70;;
24787;SDS011;12883;52.662;5.196;2024-03-02T09:14:11;1.10;;;1.10;;
24787;SDS011;12883;52.662;5.196;2024-03-02T09:16:37;1.10;;;1.10;;
24787;SDS011;12883;52.662;5.196;2024-03-02T09:19:03;1.20;;;1.20;;
24787;SDS011;12883;52.662;5.196;2024-03-02T09:21:28;0.83;;;0.83;;
24787;SDS011;12883;52.662;5.196;2024-03-02T09:23:55;0.83;;;0.83;;
24787;SDS011;12883;52.662;5.196;2024-03-02T09:26:20;0.97;;;0.97;;
24787;SDS011;12883;52.662;5.196;2024-03-02T09:28:46;0.80;;;0.80;;
24787;SDS011;12883;52.662;5.196;2024-03-02T09:31:11;0.90;;;0.90;;
24787;SDS011;12883;52.662;5.196;2024-03-02T09:33:37;1.53;;;1.53;;
24787;SDS011;12883;52.662;5.196;2024-03-02T09:36:04;1.13;;;1.13;;
24787;SDS011;12883;52.662;5.196;2024-03-02T09:38:31;1.00;;;1.00;;
24787;SDS011;12883;52.662;5.196;2024-03-02T09:40:58;1.00;;;1.00;;
24787;SDS011;12883;52.662;5.196;2024-03-02T09:43:24;1.20;;;1.20;;
24787;SDS011;12883;52.662;5.196;2024-03-02T09:45:50;0.90;;;0.90;;
24787;SDS011;12883;52.662;5.196;2024-03-02T09:48:16;1.20;;;1.20;;
24787;SDS011;12883;52.662;5.196;2024-03-02T09:50:43;0.90;;;0.90;;
24787;SDS011;12883;52.662;5.196;2024-03-02T09:53:08;1.10;;;1.10;;
24787;SDS011;12883;52.662;5.196;2024-03-02T09:55:35;0.70;;;0.70;;
24787;SDS011;12883;52.662;5.196;2024-03-02T09:58:00;0.90;;;0.90;;
24787;SDS011;12883;52.662;5.196;2024-03-02T10:00:26;1.00;;;1.00;;
24787;SDS011;12883;52.662;5.196;2024-03-02T10:02:51;1.13;;;1.13;;
24787;SDS011;12883;52.662;5.196;2024-03-02T10:05:26;1.00;;;1.00;;
24787;SDS011;12883;52.662;5.196;2024-03-02T10:08:01;0.80;;;0.80;;
24787;SDS011;12883;52.662;5.196;2024-03-02T10:10:36;1.33;;;1.33;;
24787;SDS011;12883;52.662;5.196;2024-03-02T10:13:05;1.47;;;1.47;;
24787;SDS011;12883;52.662;5.196;2024-03-02T10:15:31;1.30;;;1.30;;
24787;SDS011;12883;52.662;5.196;2024-03-02T10:17:57;1.13;;;1.13;;
24787;SDS011;12883;52.662;5.196;2024-03-02T10:20:26;0.97;;;0.97;;
24787;SDS011;12883;52.662;5.196;2024-03-02T10:22:54;1.00;;;1.00;;
24787;SDS011;12883;52.662;5.196;2024-03-02T10:25:30;0.80;;;0.80;;
24787;SDS011;12883;52.662;5.196;2024-03-02T10:27:58;1.40;;;1.40;;
24787;SDS011;12883;52.662;5.196;2024-03-02T10:30:24;1.17;;;1.17;;
24787;SDS011;12883;52.662;5.196;2024-03-02T10:32:51;0.97;;;0.97;;
24787;SDS011;12883;52.662;5.196;2024-03-02T10:35:17;0.73;;;0.73;;
24787;SDS011;12883;52.662;5.196;2024-03-02T10:37:43;1.30;;;1.30;;
24787;SDS011;12883;52.662;5.196;2024-03-02T10:40:10;0.87;;;0.87;;
24787;SDS011;12883;52.662;5.196;2024-03-02T10:42:36;1.23;;;1.23;;
24787;SDS011;12883;52.662;5.196;2024-03-02T10:45:04;1.30;;;1.30;;
24787;SDS011;12883;52.662;5.196;2024-03-02T10:47:31;1.20;;;1.20;;
24787;SDS011;12883;52.662;5.196;2024-03-02T10:49:59;1.53;;;1.53;;
24787;SDS011;12883;52.662;5.196;2024-03-02T10:52:24;1.10;;;1.10;;
24787;SDS011;12883;52.662;5.196;2024-03-02T10:54:50;1.50;;;1.50;;
24787;SDS011;12883;52.662;5.196;2024-03-02T10:57:15;1.00;;;1.00;;
24787;SDS011;12883;52.662;5.196;2024-03-02T10:59:51;1.40;;;1.40;;
24787;SDS011;12883;52.662;5.196;2024-03-02T11:02:17;1.10;;;1.10;;
24787;SDS011;12883;52.662;5.196;2024-03-02T11:04:46;1.83;;;1.83;;
24787;SDS011;12883;52.662;5.196;2024-03-02T11:07:14;1.43;;;1.43;;
24787;SDS011;12883;52.662;5.196;2024-03-02T11:09:41;1.50;;;1.50;;
24787;SDS011;12883;52.662;5.196;2024-03-02T11:12:29;1.63;;;1.63;;
24787;SDS011;12883;52.662;5.196;2024-03-02T11:15:01;1.33;;;1.33;;
24787;SDS011;12883;52.662;5.196;2024-03-02T11:17:35;1.67;;;1.67;;
24787;SDS011;12883;52.662;5.196;2024-03-02T11:20:02;1.23;;;1.23;;
24787;SDS011;12883;52.662;5.196;2024-03-02T11:22:29;1.43;;;1.43;;
24787;SDS011;12883;52.662;5.196;2024-03-02T11:24:54;1.00;;;1.00;;
24787;SDS011;12883;52.662;5.196;2024-03-02T11:28:20;1.30;;;1.30;;
24787;SDS011;12883;52.662;5.196;2024-03-02T11:30:51;1.60;;;1.60;;
24787;SDS011;12883;52.662;5.196;2024-03-02T11:33:09;1.33;;;1.33;;
24787;SDS011;12883;52.662;5.196;2024-03-02T11:35:35;1.73;;;1.73;;
24787;SDS011;12883;52.662;5.196;2024-03-02T11:38:04;1.17;;;1.17;;
24787;SDS011;12883;52.662;5.196;2024-03-02T11:40:31;1.50;;;1.50;;
24787;SDS011;12883;52.662;5.196;2024-03-02T11:42:59;1.30;;;1.30;;
24787;SDS011;12883;52.662;5.196;2024-03-02T11:45:28;1.17;;;1.17;;
24787;SDS011;12883;52.662;5.196;2024-03-02T11:47:56;1.40;;;1.40;;
24787;SDS011;12883;52.662;5.196;2024-03-02T11:50:35;1.13;;;1.13;;
24787;SDS011;12883;52.662;5.196;2024-03-02T11:53:08;1.07;;;1.07;;
24787;SDS011;12883;52.662;5.196;2024-03-02T11:55:39;1.17;;;1.17;;
24787;SDS011;12883;52.662;5.196;2024-03-02T11:58:14;1.50;;;1.50;;
24787;SDS011;12883;52.662;5.196;2024-03-02T12:00:42;1.30;;;1.30;;
24787;SDS011;12883;52.662;5.196;2024-03-02T12:03:08;1.10;;;1.10;;
24787;SDS011;12883;52.662;5.196;2024-03-02T12:05:35;1.27;;;1.27;;
24787;SDS011;12883;52.662;5.196;2024-03-02T12:08:02;1.20;;;1.20;;
24787;SDS011;12883;52.662;5.196;2024-03-02T12:10:29;1.40;;;1.40;;
24787;SDS011;12883;52.662;5.196;2024-03-02T12:12:56;1.90;;;1.90;;
24787;SDS011;12883;52.662;5.196;2024-03-02T12:15:25;1.60;;;1.60;;
24787;SDS011;12883;52.662;5.196;2024-03-02T12:17:55;0.93;;;0.93;;
24787;SDS011;12883;52.662;5.196;2024-03-02T12:20:22;1.43;;;1.43;;
24787;SDS011;12883;52.662;5.196;2024-03-02T12:22:50;1.20;;;1.20;;
24787;SDS011;12883;52.662;5.196;2024-03-02T12:25:17;1.40;;;1.40;;
24787;SDS011;12883;52.662;5.196;2024-03-02T12:27:44;1.30;;;1.30;;
24787;SDS011;12883;52.662;5.196;2024-03-02T12:30:11;1.20;;;1.20;;
24787;SDS011;12883;52.662;5.196;2024-03-02T12:32:37;1.13;;;1.13;;
24787;SDS011;12883;52.662;5.196;2024-03-02T12:35:04;1.13;;;1.13;;
24787;SDS011;12883;52.662;5.196;2024-03-02T12:37:30;1.00;;;1.00;;
24787;SDS011;12883;52.662;5.196;2024-03-02T12:39:56;1.10;;;1.10;;
24787;SDS011;12883;52.662;5.196;2024-03-02T12:42:21;1.20;;;1.20;;
24787;SDS011;12883;52.662;5.196;2024-03-02T12:44:46;1.50;;;1.50;;
24787;SDS011;12883;52.662;5.196;2024-03-02T12:47:12;1.07;;;1.07;;
24787;SDS011;12883;52.662;5.196;2024-03-02T12:49:39;1.00;;;1.00;;
24787;SDS011;12883;52.662;5.196;2024-03-02T12:52:06;1.20;;;1.20;;
24787;SDS011;12883;52.662;5.196;2024-03-02T12:54:31;1.20;;;1.20;;
24787;SDS011;12883;52.662;5.196;2024-03-02T12:56:58;1.23;;;1.23;;
24787;SDS011;12883;52.662;5.196;2024-03-02T12:59:24;1.17;;;1.17;;
24787;SDS011;12883;52.662;5.196;2024-03-02T13:01:54;1.20;;;1.20;;
24787;SDS011;12883;52.662;5.196;2024-03-02T13:04:25;1.00;;;1.00;;
24787;SDS011;12883;52.662;5.196;2024-03-02T13:06:53;1.07;;;1.07;;
24787;SDS011;12883;52.662;5.196;2024-03-02T13:09:21;1.30;;;1.30;;
24787;SDS011;12883;52.662;5.196;2024-03-02T13:11:46;1.00;;;1.00;;
24787;SDS011;12883;52.662;5.196;2024-03-02T13:14:12;1.20;;;1.20;;
24787;SDS011;12883;52.662;5.196;2024-03-02T13:16:41;1.15;;;1.15;;
24787;SDS011;12883;52.662;5.196;2024-03-02T13:19:13;1.10;;;1.10;;
24787;SDS011;12883;52.662;5.196;2024-03-02T13:21:38;0.80;;;0.80;;
24787;SDS011;12883;52.662;5.196;2024-03-02T13:24:04;0.80;;;0.80;;
24787;SDS011;12883;52.662;5.196;2024-03-02T13:26:30;1.33;;;1.33;;
24787;SDS011;12883;52.662;5.196;2024-03-02T13:28:56;2.43;;;2.43;;
24787;SDS011;12883;52.662;5.196;2024-03-02T13:31:21;1.20;;;1.20;;
24787;SDS011;12883;52.662;5.196;2024-03-02T13:33:47;1.08;;;1.08;;
24787;SDS011;12883;52.662;5.196;2024-03-02T13:36:12;1.20;;;1.20;;
24787;SDS011;12883;52.662;5.196;2024-03-02T13:38:38;1.03;;;1.03;;
24787;SDS011;12883;52.662;5.196;2024-03-02T13:41:03;1.40;;;1.40;;
24787;SDS011;12883;52.662;5.196;2024-03-02T13:43:29;0.93;;;0.93;;
24787;SDS011;12883;52.662;5.196;2024-03-02T13:45:57;0.90;;;0.90;;
24787;SDS011;12883;52.662;5.196;2024-03-02T13:48:23;1.23;;;1.23;;
24787;SDS011;12883;52.662;5.196;2024-03-02T13:50:51;1.10;;;1.10;;
24787;SDS011;12883;52.662;5.196;2024-03-02T13:53:17;1.00;;;1.00;;
24787;SDS011;12883;52.662;5.196;2024-03-02T13:55:43;1.50;;;1.50;;
24787;SDS011;12883;52.662;5.196;2024-03-02T13:58:09;1.40;;;1.40;;
24787;SDS011;12883;52.662;5.196;2024-03-02T14:00:35;1.30;;;1.30;;
24787;SDS011;12883;52.662;5.196;2024-03-02T14:03:02;1.00;;;1.00;;
24787;SDS011;12883;52.662;5.196;2024-03-02T14:05:28;0.88;;;0.88;;
24787;SDS011;12883;52.662;5.196;2024-03-02T14:07:54;1.73;;;1.73;;
24787;SDS011;12883;52.662;5.196;2024-03-02T14:10:19;1.10;;;1.10;;
24787;SDS011;12883;52.662;5.196;2024-03-02T14:12:47;1.20;;;1.20;;
24787;SDS011;12883;52.662;5.196;2024-03-02T14:15:13;0.68;;;0.68;;
24787;SDS011;12883;52.662;5.196;2024-03-02T14:17:38;1.10;;;1.10;;
24787;SDS011;12883;52.662;5.196;2024-03-02T14:20:04;0.90;;;0.90;;
24787;SDS011;12883;52.662;5.196;2024-03-02T14:22:30;1.02;;;1.02;;
24787;SDS011;12883;52.662;5.196;2024-03-02T14:24:56;0.90;;;0.90;;
24787;SDS011;12883;52.662;5.196;2024-03-02T14:27:22;0.90;;;0.90;;
24787;SDS011;12883;52.662;5.196;2024-03-02T14:29:47;1.07;;;1.07;;
24787;SDS011;12883;52.662;5.196;2024-03-02T14:32:12;1.10;;;1.10;;
24787;SDS011;12883;52.662;5.196;2024-03-02T14:34:38;1.00;;;1.00;;
24787;SDS011;12883;52.662;5.196;2024-03-02T14:37:03;1.30;;;1.30;;
24787;SDS011;12883;52.662;5.196;2024-03-02T14:39:29;3.17;;;3.17;;
24787;SDS011;12883;52.662;5.196;2024-03-02T14:41:58;0.95;;;0.95;;
24787;SDS011;12883;52.662;5.196;2024-03-02T14:44:23;0.88;;;0.88;;
24787;SDS011;12883;52.662;5.196;2024-03-02T14:46:49;1.10;;;1.10;;
24787;SDS011;12883;52.662;5.196;2024-03-02T14:49:14;1.15;;;1.15;;